Time;durP1;ratioP1;P1;durP2;ratioP2;P2;SDS_P1;SDS_P2;PMS_P1;PMS_P2;Temp;Humidity;BMP_temperature;BMP_pressure;BME280_temperature;BME280_humidity;BME280_pressure;Samples;Min_cycle;Max_cycle;Signal;HPM_P1;HPM_P2
2021/04/20 00:00:13;;;;;;;65.43;31.67;;;4.90;99.90;;;;;;4970133;28;20408;-73
2021/04/20 00:02:39;;;;;;;57.80;28.87;;;4.80;99.90;;;;;;4970789;28;20484;-72
2021/04/20 00:05:08;;;;;;;103.53;33.27;;;4.80;99.90;;;;;;4970191;28;20914;-73
2021/04/20 00:07:34;;;;;;;79.90;30.17;;;4.90;99.90;;;;;;4970121;28;20416;-73
2021/04/20 00:10:00;;;;;;;304.95;44.67;;;4.90;99.90;;;;;;4969875;28;20382;-73
2021/04/20 00:12:26;;;;;;;282.95;43.08;;;4.80;99.90;;;;;;4970780;28;20796;-73
2021/04/20 00:14:51;;;;;;;213.83;41.47;;;4.80;99.90;;;;;;4968696;28;20805;-73
2021/04/20 00:17:18;;;;;;;248.02;40.45;;;4.80;99.90;;;;;;4970660;28;20389;-72
2021/04/20 00:19:45;;;;;;;350.52;47.85;;;4.80;99.90;;;;;;4969881;28;20412;-67
2021/04/20 00:22:12;;;;;;;280.13;47.28;;;4.80;99.90;;;;;;4970510;28;20523;-73
2021/04/20 00:24:37;;;;;;;232.87;39.23;;;4.70;99.90;;;;;;4970767;28;20512;-73
2021/04/20 00:27:03;;;;;;;153.30;33.33;;;4.70;99.90;;;;;;4968754;28;21119;-74
2021/04/20 00:29:29;;;;;;;189.15;38.45;;;4.60;99.90;;;;;;4970663;28;20745;-74
2021/04/20 00:31:54;;;;;;;129.00;32.70;;;4.60;99.90;;;;;;4969700;28;20387;-73
2021/04/20 00:34:20;;;;;;;137.73;35.75;;;4.60;99.90;;;;;;4970506;28;20535;-73
2021/04/20 00:36:46;;;;;;;220.15;41.45;;;4.60;99.90;;;;;;4969556;28;20435;-72
2021/04/20 00:39:11;;;;;;;216.20;41.30;;;4.60;99.90;;;;;;4970318;28;20403;-71
2021/04/20 00:41:37;;;;;;;169.15;35.45;;;4.60;99.90;;;;;;4970440;28;20469;-73
2021/04/20 00:44:03;;;;;;;142.73;34.77;;;4.50;99.90;;;;;;4969502;28;20454;-74
2021/04/20 00:46:29;;;;;;;72.73;28.47;;;4.60;99.90;;;;;;4970437;28;20390;-74
2021/04/20 00:48:54;;;;;;;118.55;31.25;;;4.60;99.90;;;;;;4969538;28;20474;-74
2021/04/20 00:51:20;;;;;;;103.45;33.95;;;4.60;99.90;;;;;;4970111;28;20380;-74
2021/04/20 00:53:46;;;;;;;84.28;32.30;;;4.70;99.90;;;;;;4969547;28;20419;-70
2021/04/20 00:56:17;;;;;;;76.50;33.10;;;4.80;99.90;;;;;;4969996;28;20401;-74
2021/04/20 00:58:43;;;;;;;86.70;32.47;;;4.80;99.90;;;;;;4969857;28;20420;-67
2021/04/20 01:01:08;;;;;;;125.50;36.33;;;6.10;99.90;;;;;;4968304;28;20431;-73
2021/04/20 01:03:34;;;;;;;227.40;41.47;;;4.90;99.90;;;;;;4969924;28;20392;-74
2021/04/20 01:06:01;;;;;;;152.70;38.80;;;4.80;99.90;;;;;;4968859;28;20396;-74
2021/04/20 01:08:27;;;;;;;213.20;45.13;;;4.90;99.90;;;;;;4969933;28;20491;-74
2021/04/20 01:10:55;;;;;;;180.77;40.58;;;4.70;99.90;;;;;;4969220;28;20442;-74
2021/04/20 01:13:27;;;;;;;210.93;40.83;;;4.50;99.90;;;;;;4969871;28;20454;-75
2021/04/20 01:15:53;;;;;;;185.40;37.92;;;4.40;99.90;;;;;;4969075;28;20399;-74
2021/04/20 01:18:22;;;;;;;181.23;39.60;;;4.60;99.90;;;;;;4970045;28;20475;-74
2021/04/20 01:20:52;;;;;;;159.27;39.15;;;4.50;99.90;;;;;;4967395;28;20397;-75
2021/04/20 01:23:56;;;;;;;133.90;38.88;;;4.50;99.90;;;;;;4969592;28;20408;-75
2021/04/20 01:26:25;;;;;;;220.77;43.67;;;4.40;99.90;;;;;;4969753;28;20505;-75
2021/04/20 01:28:51;;;;;;;105.03;34.65;;;4.40;99.90;;;;;;4968844;28;20383;-75
2021/04/20 01:31:18;;;;;;;130.35;36.92;;;4.40;99.90;;;;;;4969686;28;20388;-75
2021/04/20 01:33:44;;;;;;;138.77;37.75;;;4.40;99.90;;;;;;4969275;28;20416;-69
2021/04/20 01:36:14;;;;;;;124.20;36.10;;;4.30;99.90;;;;;;4969012;28;20395;-75
2021/04/20 01:38:42;;;;;;;138.90;38.03;;;4.30;99.90;;;;;;4968141;28;20411;-76
2021/04/20 01:41:08;;;;;;;103.30;36.97;;;4.30;99.90;;;;;;4969143;28;20408;-75
2021/04/20 01:43:34;;;;;;;102.97;35.20;;;5.50;99.90;;;;;;4969213;28;20392;-75
2021/04/20 01:46:00;;;;;;;83.40;33.08;;;4.30;99.90;;;;;;4968877;28;20478;-74
2021/04/20 01:48:26;;;;;;;58.80;29.93;;;4.40;99.90;;;;;;4969256;28;20450;-75
2021/04/20 01:50:52;;;;;;;58.75;28.88;;;4.40;99.90;;;;;;4968266;28;20393;-75
2021/04/20 01:53:18;;;;;;;53.13;28.58;;;5.90;99.90;;;;;;4969202;28;20852;-75
2021/04/20 01:55:43;;;;;;;62.07;29.77;;;4.40;99.90;;;;;;4968915;28;20477;-68
2021/04/20 01:58:10;;;;;;;57.15;28.52;;;4.40;99.90;;;;;;4969073;28;20974;-75
2021/04/20 02:00:38;;;;;;;48.53;28.25;;;4.30;99.90;;;;;;4968953;28;20749;-73
2021/04/20 02:03:05;;;;;;;50.40;26.55;;;4.20;99.90;;;;;;4968507;28;20388;-75
2021/04/20 02:05:31;;;;;;;43.28;23.85;;;4.40;99.90;;;;;;4967103;28;20395;-75
2021/04/20 02:07:57;;;;;;;45.03;25.35;;;4.20;99.90;;;;;;4967819;28;20412;-75
2021/04/20 02:10:24;;;;;;;45.30;25.20;;;4.10;99.90;;;;;;4969128;28;20872;-75
2021/04/20 02:12:49;;;;;;;43.33;25.40;;;4.00;99.90;;;;;;4968085;28;20856;-75
2021/04/20 02:15:15;;;;;;;45.03;25.53;;;4.10;99.90;;;;;;4968721;28;20449;-74
2021/04/20 02:17:43;;;;;;;43.92;26.20;;;4.20;99.90;;;;;;4969208;28;20396;-75
2021/04/20 02:20:12;;;;;;;59.30;28.35;;;4.10;99.90;;;;;;4967970;28;20438;-74
2021/04/20 02:22:42;;;;;;;72.55;29.35;;;4.10;99.90;;;;;;4968376;28;20391;-75
2021/04/20 02:25:12;;;;;;;75.78;30.27;;;4.10;99.90;;;;;;4967911;28;20434;-75
2021/04/20 02:27:38;;;;;;;79.97;30.10;;;4.10;99.90;;;;;;4968614;28;20454;-75
2021/04/20 02:30:07;;;;;;;52.90;26.30;;;4.10;99.90;;;;;;4967975;28;20677;-75
2021/04/20 02:32:39;;;;;;;43.53;25.33;;;4.00;99.90;;;;;;4968860;28;20388;-75
2021/04/20 02:35:11;;;;;;;50.03;26.23;;;3.90;99.90;;;;;;4967874;28;20414;-75
2021/04/20 02:37:38;;;;;;;47.78;26.50;;;3.80;99.90;;;;;;4968775;28;20416;-75
2021/04/20 02:40:12;;;;;;;45.38;25.65;;;3.70;99.90;;;;;;4967927;28;20400;-75
2021/04/20 02:42:39;;;;;;;42.20;24.15;;;3.60;99.90;;;;;;4969003;28;20730;-75
2021/04/20 02:45:07;;;;;;;58.00;27.35;;;3.60;99.90;;;;;;4967877;28;20392;-75
2021/04/20 02:47:36;;;;;;;76.88;27.50;;;3.60;99.90;;;;;;4968039;28;20392;-75
2021/04/20 02:50:24;;;;;;;54.45;26.13;;;5.10;99.90;;;;;;4967569;28;20472;-75
2021/04/20 02:52:51;;;;;;;99.07;29.85;;;6.00;99.90;;;;;;4967790;28;20423;-75
2021/04/20 02:55:18;;;;;;;102.13;32.08;;;3.60;99.90;;;;;;4968213;28;20757;-78
2021/04/20 02:57:50;;;;;;;112.50;32.27;;;3.50;99.90;;;;;;4968292;28;20373;-70
2021/04/20 03:00:19;;;;;;;94.40;30.25;;;3.30;99.90;;;;;;4968335;28;20403;-76
2021/04/20 03:02:46;;;;;;;90.85;32.08;;;3.30;99.90;;;;;;4968254;28;20431;-68
2021/04/20 03:05:17;;;;;;;57.45;27.05;;;3.40;99.90;;;;;;4967690;28;20384;-76
2021/04/20 03:07:44;;;;;;;97.93;32.40;;;3.30;99.90;;;;;;4968207;28;20435;-76
2021/04/20 03:10:12;;;;;;;167.25;39.88;;;3.40;99.90;;;;;;4967458;28;20458;-75
2021/04/20 03:12:39;;;;;;;86.72;30.10;;;3.50;99.90;;;;;;4968087;28;20384;-75
2021/04/20 03:15:07;;;;;;;102.63;32.35;;;4.80;99.90;;;;;;4967460;28;21022;-76
2021/04/20 03:17:32;;;;;;;70.45;27.98;;;3.50;99.90;;;;;;4968889;28;20395;-76
2021/04/20 03:19:58;;;;;;;68.87;29.77;;;3.30;99.90;;;;;;4970801;28;20384;-75
2021/04/20 03:22:25;;;;;;;64.77;27.47;;;4.40;99.90;;;;;;4970286;28;20789;-76
2021/04/20 03:25:07;;;;;;;74.55;29.45;;;4.20;99.90;;;;;;4970749;28;20398;-76
2021/04/20 03:27:33;;;;;;;55.70;26.75;;;3.10;99.90;;;;;;4971548;28;20415;-76
2021/04/20 03:29:59;;;;;;;61.72;28.13;;;3.20;99.90;;;;;;4970433;28;20912;-74
2021/04/20 03:32:27;;;;;;;48.47;25.17;;;3.20;99.90;;;;;;4971192;28;20388;-76
2021/04/20 03:34:59;;;;;;;48.40;25.88;;;3.20;99.90;;;;;;4970518;28;20399;-75
2021/04/20 03:37:36;;;;;;;57.42;27.10;;;3.30;99.90;;;;;;4971513;28;20404;-76
2021/04/20 03:40:07;;;;;;;63.23;26.90;;;3.30;99.90;;;;;;4970631;28;20416;-76
2021/04/20 03:42:42;;;;;;;86.38;31.50;;;3.20;99.90;;;;;;4971316;28;20872;-76
2021/04/20 03:45:15;;;;;;;76.82;29.85;;;3.20;99.90;;;;;;4970202;28;20381;-76
2021/04/20 03:47:45;;;;;;;89.37;30.50;;;3.20;99.90;;;;;;4971303;28;20402;-77
2021/04/20 03:50:18;;;;;;;72.75;29.33;;;3.10;99.90;;;;;;4970621;28;20396;-70
2021/04/20 03:52:48;;;;;;;58.83;25.17;;;3.30;99.90;;;;;;4971457;28;20399;-67
2021/04/20 03:55:17;;;;;;;77.13;27.85;;;3.30;99.90;;;;;;4970893;28;20389;-74
2021/04/20 03:57:45;;;;;;;93.50;30.30;;;3.30;99.90;;;;;;4971037;28;20396;-76
2021/04/20 04:00:13;;;;;;;122.00;31.08;;;3.20;99.90;;;;;;4970726;28;20400;-76
2021/04/20 04:02:42;;;;;;;66.88;25.92;;;3.20;99.90;;;;;;4970946;28;20388;-76
2021/04/20 04:05:14;;;;;;;72.63;27.13;;;3.30;99.90;;;;;;4969744;28;20391;-76
2021/04/20 04:07:40;;;;;;;69.70;27.00;;;3.40;99.90;;;;;;4971091;28;20784;-75
2021/04/20 04:10:07;;;;;;;69.45;27.85;;;3.50;99.90;;;;;;4970393;28;20475;-76
2021/04/20 04:12:38;;;;;;;60.83;25.13;;;3.60;99.90;;;;;;4970674;28;20480;-75
2021/04/20 04:15:05;;;;;;;49.50;24.60;;;3.50;99.90;;;;;;4969956;28;20454;-75
2021/04/20 04:17:32;;;;;;;65.95;28.50;;;3.30;99.90;;;;;;4970930;28;20861;-75
2021/04/20 04:20:01;;;;;;;88.90;30.92;;;3.20;99.90;;;;;;4969702;28;20431;-75
2021/04/20 04:22:36;;;;;;;64.78;28.67;;;3.20;99.90;;;;;;4969353;28;20429;-75
2021/04/20 04:25:05;;;;;;;54.55;26.60;;;3.20;99.90;;;;;;4969573;28;20476;-75
2021/04/20 04:27:35;;;;;;;57.30;26.10;;;3.20;99.90;;;;;;4970714;28;20377;-75
2021/04/20 04:30:06;;;;;;;66.30;26.55;;;3.30;99.90;;;;;;4969346;28;20463;-75
2021/04/20 04:32:33;;;;;;;153.38;33.40;;;3.40;99.90;;;;;;4970067;28;20457;-75
2021/04/20 04:35:05;;;;;;;228.55;38.10;;;3.60;99.90;;;;;;4969390;28;20745;-75
2021/04/20 04:37:34;;;;;;;297.17;45.22;;;3.40;99.90;;;;;;4970226;28;20954;-75
2021/04/20 04:40:01;;;;;;;156.23;35.55;;;3.50;99.90;;;;;;4968226;28;20742;-75
2021/04/20 04:42:27;;;;;;;124.15;33.47;;;3.70;99.90;;;;;;4970345;28;20450;-74
2021/04/20 04:44:53;;;;;;;142.20;33.35;;;3.80;99.90;;;;;;4969658;28;20397;-75
2021/04/20 04:47:19;;;;;;;205.07;37.90;;;3.90;99.90;;;;;;4970212;28;20395;-75
2021/04/20 04:49:45;;;;;;;94.20;30.25;;;4.00;99.90;;;;;;4970034;28;20922;-74
2021/04/20 04:52:14;;;;;;;101.50;32.92;;;4.00;99.90;;;;;;4969647;28;20405;-75
2021/04/20 04:54:41;;;;;;;117.75;32.83;;;4.10;99.90;;;;;;4969801;28;20414;-76
2021/04/20 04:57:08;;;;;;;83.10;31.42;;;4.80;99.90;;;;;;4969595;28;20482;-75
2021/04/20 04:59:36;;;;;;;83.13;31.20;;;4.10;99.90;;;;;;4971393;28;20393;-75
2021/04/20 05:02:02;;;;;;;145.00;34.40;;;4.30;99.90;;;;;;4968953;28;20815;-75
2021/04/20 05:04:28;;;;;;;75.68;28.38;;;4.40;99.90;;;;;;4969991;28;20471;-76
2021/04/20 05:06:54;;;;;;;105.38;33.28;;;4.30;99.90;;;;;;4968735;28;20388;-75
2021/04/20 05:09:22;;;;;;;113.20;31.27;;;4.40;99.90;;;;;;4968770;28;20895;-75
2021/04/20 05:11:50;;;;;;;166.60;37.55;;;4.80;99.90;;;;;;4969621;28;20416;-67
2021/04/20 05:14:18;;;;;;;126.68;34.13;;;5.90;99.90;;;;;;4969725;28;20434;-75
2021/04/20 05:16:49;;;;;;;115.70;32.90;;;4.50;99.90;;;;;;4969470;28;20454;-75
2021/04/20 05:19:35;;;;;;;140.07;33.50;;;4.30;99.90;;;;;;4969593;28;20435;-77
2021/04/20 05:22:01;;;;;;;139.82;34.25;;;4.50;99.90;;;;;;4983875;28;20857;-76
2021/04/20 05:24:28;;;;;;;150.30;35.27;;;4.50;99.90;;;;;;4969882;28;20416;-77
2021/04/20 05:26:55;;;;;;;161.73;35.65;;;4.80;99.90;;;;;;4968675;28;20457;-76
2021/04/20 05:29:21;;;;;;;102.38;35.25;;;4.90;99.90;;;;;;4969552;28;20410;-76
2021/04/20 05:31:48;;;;;;;124.40;40.17;;;5.10;99.90;;;;;;4969052;28;20832;-69
2021/04/20 05:34:14;;;;;;;146.90;36.67;;;5.30;99.90;;;;;;4968632;28;20441;-77
2021/04/20 05:36:40;;;;;;;161.63;35.77;;;5.20;99.90;;;;;;4969510;28;20392;-76
2021/04/20 05:39:11;;;;;;;189.93;41.20;;;5.30;99.90;;;;;;4969078;28;20751;-77
2021/04/20 05:41:38;;;;;;;125.70;33.95;;;5.40;99.90;;;;;;4968537;28;20397;-76
2021/04/20 05:44:07;;;;;;;113.43;37.10;;;5.60;99.90;;;;;;4967714;28;20403;-75
2021/04/20 05:46:38;;;;;;;92.30;32.47;;;5.90;99.90;;;;;;4968905;28;20380;-75
2021/04/20 05:49:05;;;;;;;57.57;27.40;;;5.90;99.90;;;;;;4968630;28;20397;-77
2021/04/20 05:51:31;;;;;;;83.80;31.58;;;6.10;99.90;;;;;;4969258;28;20872;-76
2021/04/20 05:53:57;;;;;;;103.07;32.33;;;6.30;99.90;;;;;;4953961;28;20422;-74
2021/04/20 05:56:23;;;;;;;119.70;30.88;;;6.30;99.90;;;;;;5041187;28;20402;-76
2021/04/20 05:58:54;;;;;;;60.90;28.20;;;6.40;99.90;;;;;;4959715;28;20396;-69
2021/04/20 06:01:21;;;;;;;64.20;29.42;;;6.50;99.90;;;;;;4969020;28;20526;-76
2021/04/20 06:03:47;;;;;;;57.22;27.75;;;6.70;99.90;;;;;;4951134;28;20397;-76
2021/04/20 06:06:17;;;;;;;70.63;29.30;;;6.90;99.90;;;;;;4948446;28;20467;-76
2021/04/20 06:08:43;;;;;;;54.58;27.05;;;6.90;99.90;;;;;;4949004;28;20623;-76
2021/04/20 06:11:10;;;;;;;81.28;27.95;;;7.00;99.90;;;;;;4957085;28;21053;-73
2021/04/20 06:13:36;;;;;;;99.18;28.90;;;7.10;99.90;;;;;;4964386;28;20424;-74
2021/04/20 06:16:02;;;;;;;129.63;32.10;;;7.30;99.90;;;;;;4967386;28;20392;-73
2021/04/20 06:18:30;;;;;;;139.35;36.28;;;7.30;99.90;;;;;;4967441;28;20454;-73
2021/04/20 06:20:58;;;;;;;116.53;34.47;;;7.30;99.90;;;;;;4967776;28;20382;-73
2021/04/20 06:23:25;;;;;;;108.35;32.95;;;7.10;99.90;;;;;;4968236;28;20411;-76
2021/04/20 06:25:55;;;;;;;183.52;37.78;;;7.20;99.90;;;;;;4966613;28;20491;-67
2021/04/20 06:28:21;;;;;;;173.93;37.75;;;7.10;99.90;;;;;;4968856;28;20463;-73
2021/04/20 06:30:47;;;;;;;218.73;38.50;;;7.30;99.90;;;;;;4968332;28;20817;-74
2021/04/20 06:33:14;;;;;;;187.48;34.15;;;7.50;99.90;;;;;;4957821;28;20417;-73
2021/04/20 06:35:40;;;;;;;190.63;34.30;;;7.40;99.90;;;;;;4949035;28;20382;-74
2021/04/20 06:38:06;;;;;;;235.02;37.83;;;7.60;99.90;;;;;;4946976;28;20402;-77
2021/04/20 06:40:48;;;;;;;246.80;38.08;;;7.40;99.90;;;;;;4948553;28;20452;-76
2021/04/20 06:43:15;;;;;;;180.55;32.67;;;7.50;99.90;;;;;;4948204;29;20390;-74
2021/04/20 06:45:55;;;;;;;203.07;33.63;;;7.40;99.90;;;;;;4947623;29;20426;-76
2021/04/20 06:48:43;;;;;;;143.43;33.28;;;7.50;99.90;;;;;;4948612;28;20390;-77
2021/04/20 06:51:18;;;;;;;127.25;30.25;;;7.40;99.90;;;;;;4947792;28;20437;-76
2021/04/20 06:54:08;;;;;;;157.45;30.02;;;7.40;99.90;;;;;;4948875;28;20433;-76
2021/04/20 06:56:46;;;;;;;89.75;27.52;;;7.40;99.90;;;;;;4949021;29;20421;-77
2021/04/20 06:59:24;;;;;;;121.20;28.93;;;7.40;99.90;;;;;;4947979;28;20386;-78
2021/04/20 07:02:11;;;;;;;113.03;29.97;;;7.50;99.90;;;;;;4952381;28;20733;-69
2021/04/20 07:04:46;;;;;;;116.45;29.38;;;7.50;99.90;;;;;;4967501;28;20396;-75
2021/04/20 07:07:35;;;;;;;110.55;32.70;;;7.40;99.90;;;;;;4966745;28;20448;-75
2021/04/20 07:10:08;;;;;;;88.63;30.30;;;7.60;99.90;;;;;;4966984;28;20445;-61
2021/04/20 07:12:35;;;;;;;93.80;28.90;;;8.20;99.90;;;;;;4967224;28;20388;-62
2021/04/20 07:15:02;;;;;;;84.75;28.27;;;8.40;99.90;;;;;;4966869;28;20420;-72
2021/04/20 07:18:11;;;;;;;125.10;28.63;;;8.60;99.90;;;;;;4961665;28;20407;-72
2021/04/20 07:21:11;;;;;;;111.30;30.13;;;8.80;99.90;;;;;;4967164;28;20418;-69
2021/04/20 07:23:54;;;;;;;108.10;27.77;;;9.00;99.90;;;;;;4960046;28;20733;-70
2021/04/20 07:26:56;;;;;;;86.65;25.80;;;9.00;99.90;;;;;;4956380;28;20421;-72
2021/04/20 07:29:43;;;;;;;80.55;26.02;;;9.20;99.90;;;;;;4967534;28;20397;-72
2021/04/20 07:32:42;;;;;;;69.55;26.67;;;9.50;99.90;;;;;;4966237;28;20396;-75
2021/04/20 07:35:51;;;;;;;69.47;26.23;;;9.70;99.90;;;;;;4947459;28;20428;-77
2021/04/20 07:39:04;;;;;;;60.17;24.75;;;9.80;99.90;;;;;;4943169;28;20414;-72
2021/04/20 07:41:52;;;;;;;70.05;27.35;;;9.80;99.90;;;;;;4945400;29;20398;-71
2021/04/20 07:44:20;;;;;;;47.33;25.75;;;9.80;99.90;;;;;;4957867;28;20400;-71
2021/04/20 07:46:54;;;;;;;47.97;25.77;;;10.10;99.90;;;;;;4956442;28;20490;-71
2021/04/20 07:49:38;;;;;;;47.15;26.80;;;10.10;99.90;;;;;;4954676;28;20922;-69
2021/04/20 07:52:06;;;;;;;42.78;24.33;;;10.50;99.90;;;;;;4955848;28;20454;-70
2021/04/20 07:55:06;;;;;;;41.92;24.92;;;11.20;99.90;;;;;;4955443;28;20413;-72
2021/04/20 07:57:39;;;;;;;46.23;26.80;;;12.90;99.90;;;;;;4960288;28;21263;-70
2021/04/20 08:00:16;;;;;;;40.87;25.47;;;12.20;99.90;;;;;;4959248;28;20377;-69
2021/04/20 08:03:04;;;;;;;39.92;25.30;;;13.70;99.90;;;;;;4955737;28;20386;-71
2021/04/20 08:05:41;;;;;;;37.80;24.95;;;15.40;99.90;;;;;;4964500;28;20419;-71
2021/04/20 08:08:19;;;;;;;33.38;24.20;;;16.90;99.90;;;;;;4960728;28;20513;-69
2021/04/20 08:10:56;;;;;;;37.83;25.65;;;18.20;99.90;;;;;;4950117;28;21236;-68
2021/04/20 08:13:37;;;;;;;33.45;25.58;;;18.30;99.90;;;;;;4960060;28;20413;-70
2021/04/20 08:16:11;;;;;;;34.58;25.35;;;18.80;99.90;;;;;;4958501;28;20394;-67
2021/04/20 08:19:00;;;;;;;35.05;25.35;;;18.60;99.90;;;;;;4961751;28;20440;-67
2021/04/20 08:21:29;;;;;;;35.85;25.83;;;18.50;99.90;;;;;;4961680;28;20401;-64
2021/04/20 08:23:57;;;;;;;34.08;25.65;;;19.00;99.90;;;;;;4960093;28;20403;-61
2021/04/20 08:26:29;;;;;;;34.25;25.45;;;19.60;99.90;;;;;;4959567;28;20455;-64
2021/04/20 08:29:09;;;;;;;36.13;26.10;;;20.20;99.90;;;;;;4958450;28;20473;-57
2021/04/20 08:31:56;;;;;;;33.78;25.60;;;21.10;97.30;;;;;;4956305;28;20803;-64
2021/04/20 08:34:42;;;;;;;33.25;26.20;;;21.40;95.00;;;;;;4957735;28;20527;-58
2021/04/20 08:37:16;;;;;;;36.13;26.80;;;22.60;92.30;;;;;;4962899;28;20389;-58
2021/04/20 08:40:06;;;;;;;35.60;26.13;;;22.90;85.40;;;;;;4961465;28;20911;-67
2021/04/20 08:42:47;;;;;;;32.03;23.63;;;22.00;88.70;;;;;;4959830;28;20400;-68
2021/04/20 08:45:36;;;;;;;36.60;26.38;;;22.60;82.70;;;;;;4957428;28;20745;-67
2021/04/20 08:48:20;;;;;;;34.72;26.83;;;22.40;86.30;;;;;;4962797;28;20401;-66
2021/04/20 08:51:12;;;;;;;28.60;22.07;;;22.30;85.90;;;;;;4960081;28;20388;-66
2021/04/20 08:53:44;;;;;;;29.30;23.40;;;23.60;76.00;;;;;;4963114;28;20408;-66
2021/04/20 08:56:31;;;;;;;32.92;26.20;;;25.20;72.40;;;;;;4959417;28;20646;-63
2021/04/20 08:59:08;;;;;;;31.00;24.55;;;26.40;64.40;;;;;;4957542;28;20619;-64
2021/04/20 09:02:05;;;;;;;31.50;25.20;;;27.70;57.40;;;;;;4961176;28;20495;-64
2021/04/20 09:04:55;;;;;;;30.08;23.20;;;27.60;54.80;;;;;;4958465;28;20416;-63
2021/04/20 09:07:24;;;;;;;28.98;22.60;;;27.30;54.60;;;;;;4962567;28;20442;-66
2021/04/20 09:09:50;;;;;;;29.98;24.83;;;28.30;53.70;;;;;;4961621;28;20407;-64
2021/04/20 09:12:17;;;;;;;31.83;25.77;;;27.20;55.30;;;;;;4961915;28;20399;-67
2021/04/20 09:14:47;;;;;;;30.27;24.30;;;25.90;57.10;;;;;;4958445;28;20883;-63
2021/04/20 09:17:21;;;;;;;33.20;24.58;;;26.50;57.00;;;;;;4962351;28;20436;-64
2021/04/20 09:19:56;;;;;;;29.33;24.25;;;26.10;55.60;;;;;;4981528;28;20753;-67
2021/04/20 09:22:49;;;;;;;33.30;26.98;;;25.60;57.30;;;;;;4958502;28;20444;-67
2021/04/20 09:25:39;;;;;;;34.20;27.65;;;25.20;59.60;;;;;;4963433;28;20411;-66
2021/04/20 09:28:10;;;;;;;35.80;25.83;;;24.50;61.80;;;;;;4962516;28;20884;-67
2021/04/20 09:30:44;;;;;;;33.67;26.10;;;24.00;62.20;;;;;;4961083;28;20408;-67
2021/04/20 09:33:38;;;;;;;36.25;26.75;;;24.30;61.10;;;;;;4959664;28;20987;-60
2021/04/20 09:36:08;;;;;;;33.35;26.48;;;22.70;63.20;;;;;;4958154;28;20412;-59
2021/04/20 09:38:38;;;;;;;32.45;26.33;;;22.00;65.70;;;;;;4952363;28;20402;-59
2021/04/20 09:41:07;;;;;;;33.78;24.95;;;20.70;68.40;;;;;;4948651;28;20477;-61
2021/04/20 09:43:44;;;;;;;34.15;25.40;;;19.80;72.30;;;;;;4949365;28;20402;-61
2021/04/20 09:46:17;;;;;;;32.00;24.33;;;19.30;75.00;;;;;;4948511;28;20420;-60
2021/04/20 09:49:12;;;;;;;35.28;25.73;;;19.30;76.80;;;;;;4957553;28;20413;-61
2021/04/20 09:51:48;;;;;;;34.13;25.05;;;18.90;79.90;;;;;;4961414;28;20535;-60
2021/04/20 09:54:20;;;;;;;32.13;23.47;;;18.60;83.10;;;;;;4959041;28;20412;-64
2021/04/20 09:56:54;;;;;;;30.67;22.63;;;18.40;83.40;;;;;;4958025;28;20413;-60
2021/04/20 09:59:35;;;;;;;31.02;22.92;;;19.50;82.20;;;;;;4956947;28;20391;-60
2021/04/20 10:02:23;;;;;;;32.03;22.37;;;20.40;78.90;;;;;;4960222;28;20403;-58
2021/04/20 10:05:18;;;;;;;31.83;22.08;;;21.80;72.90;;;;;;4960238;28;20898;-65
2021/04/20 10:07:56;;;;;;;29.52;22.33;;;21.50;70.60;;;;;;4958891;28;20418;-61
2021/04/20 10:10:59;;;;;;;29.43;22.93;;;21.60;71.40;;;;;;4961343;28;20412;-61
2021/04/20 10:14:03;;;;;;;30.25;21.40;;;23.30;65.60;;;;;;4959805;28;20414;-60
2021/04/20 10:16:53;;;;;;;28.80;22.00;;;24.50;60.00;;;;;;4966299;28;20416;-62
2021/04/20 10:19:26;;;;;;;31.90;23.27;;;24.00;60.60;;;;;;4960005;28;20473;-60
2021/04/20 10:22:17;;;;;;;32.03;23.10;;;22.70;63.50;;;;;;4957399;28;20392;-64
2021/04/20 10:25:07;;;;;;;29.38;22.10;;;22.50;65.80;;;;;;4956468;28;20406;-61
2021/04/20 10:27:35;;;;;;;30.27;20.75;;;22.30;66.10;;;;;;5002473;28;20823;-61
2021/04/20 10:30:08;;;;;;;25.55;20.05;;;22.90;64.00;;;;;;4958205;28;21015;-62
2021/04/20 10:32:37;;;;;;;26.75;19.30;;;23.50;59.70;;;;;;4958757;28;20390;-62
2021/04/20 10:35:05;;;;;;;27.42;19.90;;;23.80;60.40;;;;;;5042296;28;20508;-62
2021/04/20 10:37:39;;;;;;;26.05;18.88;;;23.60;58.10;;;;;;4958164;28;20407;-61
2021/04/20 10:40:15;;;;;;;24.70;18.35;;;23.40;58.50;;;;;;4958417;28;20417;-61
2021/04/20 10:42:48;;;;;;;27.92;20.63;;;22.50;58.80;;;;;;4962095;28;20907;-60
2021/04/20 10:45:15;;;;;;;29.23;18.90;;;22.30;60.00;;;;;;4959585;28;20405;-62
2021/04/20 10:47:42;;;;;;;26.03;19.40;;;21.60;60.70;;;;;;4957314;28;20399;-61
2021/04/20 10:50:15;;;;;;;27.38;18.75;;;21.30;64.00;;;;;;4955508;28;20401;-61
2021/04/20 10:52:43;;;;;;;28.45;19.45;;;20.80;67.90;;;;;;4956343;28;20446;-61
2021/04/20 10:55:10;;;;;;;21.30;15.30;;;20.30;66.20;;;;;;4956826;28;20814;-61
2021/04/20 10:57:46;;;;;;;25.15;16.80;;;20.00;67.60;;;;;;4957391;28;20394;-60
2021/04/20 11:00:18;;;;;;;23.40;16.08;;;20.00;68.50;;;;;;4950921;28;20943;-61
2021/04/20 11:02:48;;;;;;;23.60;16.00;;;20.20;67.90;;;;;;4958173;28;20401;-61
2021/04/20 11:05:21;;;;;;;28.95;18.40;;;20.40;68.30;;;;;;4948563;28;21131;-61
2021/04/20 11:07:48;;;;;;;28.73;19.15;;;20.40;68.20;;;;;;4954790;28;20915;-61
2021/04/20 11:10:15;;;;;;;26.90;18.83;;;20.20;69.60;;;;;;4956707;28;20648;-63
2021/04/20 11:12:49;;;;;;;25.27;18.23;;;20.10;69.60;;;;;;4953033;28;20398;-62
2021/04/20 11:15:20;;;;;;;20.60;13.95;;;20.00;71.60;;;;;;4964042;28;20503;-59
2021/04/20 11:17:54;;;;;;;22.85;16.50;;;20.00;66.70;;;;;;4950491;28;20405;-61
2021/04/20 11:20:42;;;;;;;16.88;11.57;;;20.40;67.10;;;;;;4954833;28;20555;-61
2021/04/20 11:23:11;;;;;;;17.27;10.80;;;20.30;59.60;;;;;;4965775;28;20877;-60
2021/04/20 11:25:55;;;;;;;15.43;10.15;;;20.10;60.50;;;;;;4967459;28;20491;-60
2021/04/20 11:28:47;;;;;;;15.10;9.75;;;20.10;58.90;;;;;;4967885;28;20392;-60
2021/04/20 11:31:18;;;;;;;19.70;10.40;;;20.40;58.60;;;;;;4966824;28;20384;-60
2021/04/20 11:33:47;;;;;;;17.60;12.30;;;20.10;59.20;;;;;;4967571;28;20477;-60
2021/04/20 11:36:44;;;;;;;15.68;10.75;;;19.90;57.90;;;;;;4966744;28;21010;-60
2021/04/20 11:39:25;;;;;;;18.20;12.07;;;20.00;59.70;;;;;;4966505;28;20415;-60
2021/04/20 11:41:58;;;;;;;18.83;12.10;;;20.10;57.50;;;;;;4970822;28;20851;-64
2021/04/20 11:44:47;;;;;;;19.65;12.02;;;20.00;59.20;;;;;;4969954;28;20418;-60
2021/04/20 11:47:13;;;;;;;19.50;12.60;;;19.00;61.30;;;;;;4970101;28;20547;-60
2021/04/20 11:49:47;;;;;;;21.08;12.88;;;19.00;62.30;;;;;;4970313;28;20866;-61
2021/04/20 11:52:20;;;;;;;19.40;12.30;;;19.10;63.50;;;;;;4969151;28;20626;-61
2021/04/20 11:54:55;;;;;;;18.70;12.50;;;19.50;64.40;;;;;;4951703;29;20484;-62
2021/04/20 11:57:21;;;;;;;20.07;13.67;;;19.60;64.30;;;;;;4951046;29;20402;-60
2021/04/20 11:59:49;;;;;;;19.70;13.93;;;19.40;61.80;;;;;;4959012;28;20501;-61
2021/04/20 12:02:17;;;;;;;20.08;13.63;;;19.40;61.60;;;;;;4958456;28;20507;-59
2021/04/20 12:04:47;;;;;;;20.45;13.70;;;19.10;60.90;;;;;;4960350;28;20400;-60
2021/04/20 12:07:23;;;;;;;18.77;12.10;;;19.10;61.60;;;;;;4959634;28;20965;-63
2021/04/20 12:09:49;;;;;;;17.95;11.80;;;19.00;62.90;;;;;;4959470;28;20406;-62
2021/04/20 12:12:15;;;;;;;18.38;12.48;;;18.90;61.70;;;;;;4960901;28;20480;-63
2021/04/20 12:14:43;;;;;;;17.50;11.50;;;18.70;62.70;;;;;;4960720;28;20700;-62
2021/04/20 12:17:10;;;;;;;15.85;10.63;;;18.50;62.00;;;;;;4956889;28;20403;-63
2021/04/20 12:19:37;;;;;;;15.90;10.80;;;18.20;62.70;;;;;;4959745;28;20729;-60
2021/04/20 12:22:06;;;;;;;17.02;11.30;;;18.00;62.90;;;;;;4955737;28;20393;-59
2021/04/20 12:24:41;;;;;;;15.30;10.07;;;17.90;63.30;;;;;;4950076;28;20498;-61
2021/04/20 12:27:08;;;;;;;15.43;10.47;;;18.00;63.30;;;;;;4949141;28;20452;-61
2021/04/20 12:29:41;;;;;;;16.98;11.55;;;18.10;61.90;;;;;;4949554;29;20727;-60
2021/04/20 12:32:12;;;;;;;19.67;13.15;;;18.40;66.50;;;;;;4950956;28;20392;-61
2021/04/20 12:34:38;;;;;;;15.35;11.25;;;18.90;65.30;;;;;;4964275;28;20962;-61
2021/04/20 12:37:04;;;;;;;17.08;11.68;;;18.80;62.50;;;;;;4951465;28;20394;-63
2021/04/20 12:39:35;;;;;;;16.35;11.40;;;18.80;62.50;;;;;;4963277;28;20480;-61
2021/04/20 12:42:04;;;;;;;17.40;11.88;;;18.70;62.60;;;;;;4965884;28;20388;-62
2021/04/20 12:44:45;;;;;;;18.23;11.33;;;18.60;61.50;;;;;;4959299;28;20474;-61
2021/04/20 12:47:11;;;;;;;14.95;10.02;;;18.80;62.20;;;;;;4968753;28;20380;-61
2021/04/20 12:49:44;;;;;;;14.83;9.73;;;18.50;60.00;;;;;;4969635;28;20396;-61
2021/04/20 12:52:13;;;;;;;14.45;9.40;;;18.40;61.70;;;;;;4969256;28;20423;-61
2021/04/20 12:54:45;;;;;;;15.67;10.40;;;18.70;62.00;;;;;;4969732;28;20507;-61
2021/04/20 12:57:16;;;;;;;15.43;10.20;;;19.10;60.20;;;;;;4968901;28;20742;-62